createdAt,value
2023-05-05T00:00:11.285Z,31.21
2023-05-05T00:02:37.877Z,31.44
2023-05-05T00:05:04.287Z,31.38
2023-05-05T00:07:30.611Z,31.18
2023-05-05T00:09:56.971Z,31.25
2023-05-05T00:12:23.310Z,31.48
2023-05-05T00:14:49.628Z,31.38
2023-05-05T00:17:16.064Z,31.48
2023-05-05T00:19:42.423Z,31.40
2023-05-05T00:22:08.834Z,31.47
2023-05-05T00:24:35.258Z,31.56
2023-05-05T00:27:01.580Z,31.52
2023-05-05T00:29:27.914Z,31.77
2023-05-05T00:31:54.291Z,31.70
2023-05-05T00:34:20.619Z,31.81
2023-05-05T00:36:46.921Z,31.76
2023-05-05T00:39:13.290Z,31.53
2023-05-05T00:41:39.889Z,31.46
2023-05-05T00:44:06.234Z,31.51
2023-05-05T00:46:32.642Z,31.77
2023-05-05T00:48:59.132Z,31.68
2023-05-05T00:51:25.622Z,31.75
2023-05-05T00:53:52.014Z,31.89
2023-05-05T00:56:18.421Z,31.89
2023-05-05T00:58:44.889Z,32.00
2023-05-05T01:01:11.336Z,32.06
2023-05-05T01:03:37.926Z,32.03
2023-05-05T01:06:04.350Z,31.92
2023-05-05T01:08:30.741Z,31.99
2023-05-05T01:10:57.190Z,32.15
2023-05-05T01:13:23.505Z,31.92
2023-05-05T01:15:51.123Z,32.34
2023-05-05T01:18:17.558Z,32.32
2023-05-05T01:20:43.920Z,32.18
2023-05-05T01:23:10.309Z,32.00
2023-05-05T01:25:36.633Z,32.24
2023-05-05T01:28:02.969Z,32.11
2023-05-05T01:30:29.345Z,32.23
2023-05-05T01:32:55.723Z,32.38
2023-05-05T01:35:22.102Z,32.39
2023-05-05T01:37:49.720Z,32.58
2023-05-05T01:40:16.051Z,32.28
2023-05-05T01:42:42.350Z,32.10
2023-05-05T01:45:08.700Z,32.48
2023-05-05T01:47:35.038Z,32.31
2023-05-05T01:50:01.416Z,32.39
2023-05-05T01:52:28.007Z,32.73
2023-05-05T01:54:54.358Z,32.52
2023-05-05T01:57:20.687Z,32.84
2023-05-05T01:59:48.189Z,32.98
2023-05-05T02:02:14.510Z,32.84
2023-05-05T02:04:40.919Z,32.96
2023-05-05T02:07:07.283Z,33.09
2023-05-05T02:09:33.741Z,32.92
2023-05-05T02:12:00.191Z,32.83
2023-05-05T02:14:26.590Z,32.87
2023-05-05T02:16:52.909Z,33.07
2023-05-05T02:19:19.815Z,32.92
2023-05-05T02:21:46.224Z,32.97
2023-05-05T02:24:12.598Z,33.10
2023-05-05T02:26:38.937Z,33.00
2023-05-05T02:29:05.331Z,33.02
2023-05-05T02:31:31.763Z,33.00
2023-05-05T02:33:58.143Z,32.89
2023-05-05T02:36:24.718Z,33.08
2023-05-05T02:38:55.353Z,32.96
2023-05-05T02:41:23.504Z,33.13
2023-05-05T02:43:50.105Z,33.44
2023-05-05T02:46:18.034Z,33.20
2023-05-05T02:48:46.443Z,33.13
2023-05-05T02:51:12.931Z,33.16
2023-05-05T02:53:39.345Z,33.34
2023-05-05T02:56:05.655Z,33.18
2023-05-05T02:58:35.958Z,33.29
2023-05-05T03:01:04.375Z,33.20
2023-05-05T03:03:30.977Z,33.35
2023-05-05T03:05:57.852Z,33.29
2023-05-05T03:08:24.212Z,33.18
2023-05-05T03:10:50.556Z,33.37
2023-05-05T03:13:17.404Z,33.44
2023-05-05T03:15:45.154Z,33.60
2023-05-05T03:18:12.513Z,33.53
2023-05-05T03:20:42.832Z,33.53
2023-05-05T03:23:11.393Z,33.71
2023-05-05T03:25:37.810Z,33.61
2023-05-05T03:28:04.398Z,33.78
2023-05-05T03:30:30.995Z,33.64
2023-05-05T03:32:57.629Z,33.90
2023-05-05T03:35:24.659Z,33.86
2023-05-05T03:37:51.006Z,33.69
2023-05-05T03:40:17.958Z,33.72
2023-05-05T03:42:44.415Z,33.76
2023-05-05T03:45:11.055Z,33.86
2023-05-05T03:47:38.613Z,33.83
2023-05-05T03:50:05.529Z,34.42
2023-05-05T03:52:32.179Z,34.62
2023-05-05T03:54:58.603Z,34.68
2023-05-05T03:57:25.109Z,34.61
2023-05-05T03:59:51.570Z,34.98
2023-05-05T04:02:18.905Z,34.95
2023-05-05T04:04:46.122Z,34.75
2023-05-05T04:07:13.019Z,35.10
2023-05-05T04:09:39.416Z,35.04
2023-05-05T04:12:05.851Z,35.25
2023-05-05T04:14:32.287Z,35.14
2023-05-05T04:16:58.956Z,35.23
2023-05-05T04:19:25.590Z,34.71
2023-05-05T04:21:52.097Z,34.79
2023-05-05T04:24:18.887Z,34.66
2023-05-05T04:26:45.307Z,34.65
2023-05-05T04:29:12.064Z,34.64
2023-05-05T04:31:39.076Z,35.28
2023-05-05T04:34:06.094Z,36.58
2023-05-05T04:36:32.799Z,37.69
2023-05-05T04:38:59.539Z,38.88
2023-05-05T04:41:27.670Z,40.00
2023-05-05T04:43:55.641Z,41.11
2023-05-05T04:46:22.152Z,41.86
2023-05-05T04:48:48.684Z,41.20
2023-05-05T04:51:15.266Z,41.68
2023-05-05T04:53:41.752Z,41.57
2023-05-05T04:56:08.313Z,41.20
2023-05-05T04:58:34.829Z,40.85
2023-05-05T05:01:01.549Z,40.74
2023-05-05T05:03:28.301Z,40.71
2023-05-05T05:05:54.764Z,40.58
2023-05-05T05:08:21.361Z,40.62
2023-05-05T05:10:47.954Z,40.34
2023-05-05T05:13:14.332Z,40.37
2023-05-05T05:15:40.793Z,39.94
2023-05-05T05:18:07.547Z,40.08
2023-05-05T05:20:34.047Z,39.70
2023-05-05T05:23:00.839Z,39.80
2023-05-05T05:25:27.954Z,39.83
2023-05-05T05:28:08.424Z,40.09
2023-05-05T05:30:39.523Z,40.29
2023-05-05T05:33:07.885Z,40.03
2023-05-05T05:35:34.419Z,40.13
2023-05-05T05:38:00.966Z,40.19
2023-05-05T05:40:27.359Z,40.23
2023-05-05T05:42:54.735Z,39.93
2023-05-05T05:45:21.331Z,39.73
2023-05-05T05:47:47.876Z,39.45
2023-05-05T05:50:14.330Z,39.11
2023-05-05T05:52:41.310Z,38.88
2023-05-05T05:55:07.884Z,38.52
2023-05-05T05:57:34.795Z,38.28
2023-05-05T06:00:02.869Z,38.30
2023-05-05T06:02:38.276Z,38.05
2023-05-05T06:05:07.029Z,37.86
2023-05-05T06:07:33.758Z,37.72
2023-05-05T06:10:10.789Z,37.33
2023-05-05T06:12:46.174Z,37.32
2023-05-05T06:15:12.551Z,37.37
2023-05-05T06:17:39.151Z,36.96
2023-05-05T06:20:05.979Z,36.94
2023-05-05T06:22:32.485Z,37.46
2023-05-05T06:24:59.457Z,37.63
2023-05-05T06:27:26.091Z,38.12
2023-05-05T06:29:52.483Z,38.31
2023-05-05T06:32:18.833Z,38.53
2023-05-05T06:34:45.261Z,38.25
2023-05-05T06:37:11.631Z,37.92
2023-05-05T06:39:37.978Z,37.74
2023-05-05T06:42:04.518Z,37.51
2023-05-05T06:44:32.559Z,37.23
2023-05-05T06:46:58.970Z,37.17
2023-05-05T06:49:25.655Z,36.79
2023-05-05T06:51:52.035Z,36.90
2023-05-05T06:54:18.419Z,36.48
2023-05-05T06:56:44.891Z,36.34
2023-05-05T06:59:11.332Z,36.55
2023-05-05T07:01:37.677Z,36.63
2023-05-05T07:04:04.137Z,36.61
2023-05-05T07:06:30.514Z,36.67
2023-05-05T07:08:56.931Z,37.18
2023-05-05T07:11:23.436Z,36.94
2023-05-05T07:13:49.855Z,36.81
2023-05-05T07:16:16.302Z,36.64
2023-05-05T07:18:42.848Z,36.66
2023-05-05T07:21:09.241Z,36.27
2023-05-05T07:23:35.607Z,36.28
2023-05-05T07:26:02.030Z,36.14
2023-05-05T07:28:28.418Z,36.05
2023-05-05T07:30:54.813Z,35.86
2023-05-05T07:33:21.238Z,35.62
2023-05-05T07:35:47.631Z,35.68
2023-05-05T07:38:14.023Z,35.64
2023-05-05T07:40:40.419Z,35.54
2023-05-05T07:43:07.055Z,34.79
2023-05-05T07:45:33.647Z,34.52
2023-05-05T07:48:00.221Z,34.53
2023-05-05T07:50:26.730Z,34.41
2023-05-05T07:53:02.144Z,34.14
2023-05-05T07:55:36.910Z,34.01
2023-05-05T07:58:03.283Z,34.09
2023-05-05T08:00:29.677Z,34.18
2023-05-05T08:02:56.193Z,33.98
2023-05-05T08:05:22.637Z,34.18
2023-05-05T08:07:49.033Z,34.39
2023-05-05T08:10:15.495Z,33.88
2023-05-05T08:12:41.904Z,33.85
2023-05-05T08:15:08.830Z,34.01
2023-05-05T08:17:35.592Z,33.55
2023-05-05T08:20:01.942Z,33.56
2023-05-05T08:22:28.355Z,33.20
2023-05-05T08:24:54.773Z,32.71
2023-05-05T08:27:21.143Z,32.74
2023-05-05T08:29:47.572Z,32.60
2023-05-05T08:32:13.991Z,31.78
2023-05-05T08:34:40.327Z,31.90
2023-05-05T08:37:06.866Z,31.88
2023-05-05T08:39:33.260Z,31.38
2023-05-05T08:41:59.733Z,31.56
2023-05-05T08:44:26.223Z,31.63
2023-05-05T08:46:52.636Z,31.64
2023-05-05T08:49:19.057Z,31.68
2023-05-05T08:51:45.456Z,31.33
2023-05-05T08:54:11.896Z,31.40
2023-05-05T08:56:38.324Z,31.10
2023-05-05T08:59:04.709Z,30.73
2023-05-05T09:01:31.158Z,30.88
2023-05-05T09:03:57.582Z,30.65
2023-05-05T09:06:23.966Z,30.59
2023-05-05T09:08:50.420Z,30.64
2023-05-05T09:11:16.785Z,30.42
2023-05-05T09:13:49.214Z,29.99
2023-05-05T09:16:15.642Z,29.79
2023-05-05T09:18:42.017Z,29.98
2023-05-05T09:21:08.464Z,29.46
2023-05-05T09:23:34.860Z,29.86
2023-05-05T09:26:01.179Z,30.25
2023-05-05T09:28:27.649Z,29.51
2023-05-05T09:30:54.108Z,29.00
2023-05-05T09:33:20.499Z,28.61
2023-05-05T09:35:46.949Z,27.90
2023-05-05T09:38:13.359Z,26.84
2023-05-05T09:40:39.726Z,26.24
2023-05-05T09:43:06.215Z,25.67
2023-05-05T09:45:32.648Z,24.49
2023-05-05T09:48:00.528Z,24.15
2023-05-05T09:50:27.287Z,23.79
2023-05-05T09:52:53.810Z,23.95
2023-05-05T09:55:20.255Z,23.78
2023-05-05T09:57:46.698Z,24.09
2023-05-05T10:00:13.299Z,24.57
2023-05-05T10:02:39.712Z,24.97
2023-05-05T10:05:06.207Z,24.59
2023-05-05T10:07:32.666Z,23.83
2023-05-05T10:09:59.044Z,23.22
2023-05-05T10:12:25.434Z,22.81
2023-05-05T10:14:51.863Z,22.83
2023-05-05T10:17:18.224Z,22.62
2023-05-05T10:19:44.609Z,22.19
2023-05-05T10:22:11.052Z,22.19
2023-05-05T10:24:37.453Z,22.76
2023-05-05T10:27:03.861Z,22.92
2023-05-05T10:29:30.343Z,22.36
2023-05-05T10:31:56.790Z,22.68
2023-05-05T10:34:23.282Z,22.92
2023-05-05T10:36:49.742Z,22.86
2023-05-05T10:39:16.103Z,22.27
2023-05-05T10:41:42.505Z,22.04
2023-05-05T10:44:09.054Z,22.53
2023-05-05T10:46:35.599Z,22.76
2023-05-05T10:49:02.114Z,22.79
2023-05-05T10:51:39.355Z,22.73
2023-05-05T10:54:06.661Z,22.91
2023-05-05T10:56:33.142Z,22.92
2023-05-05T10:59:00.640Z,23.32
2023-05-05T11:01:27.438Z,23.38
2023-05-05T11:03:54.044Z,23.01
2023-05-05T11:06:20.445Z,22.99
2023-05-05T11:08:46.815Z,22.54
2023-05-05T11:11:13.327Z,22.33
2023-05-05T11:13:39.730Z,21.19
2023-05-05T11:16:06.100Z,21.86
2023-05-05T11:18:32.523Z,22.62
2023-05-05T11:20:59.010Z,22.59
2023-05-05T11:23:25.428Z,22.45
2023-05-05T11:25:51.812Z,22.63
2023-05-05T11:28:18.183Z,22.20
2023-05-05T11:30:44.615Z,22.01
2023-05-05T11:33:11.524Z,21.99
2023-05-05T11:35:37.921Z,21.94
2023-05-05T11:38:04.329Z,21.75
2023-05-05T11:40:30.798Z,21.54
2023-05-05T11:42:57.153Z,21.40
2023-05-05T11:45:23.567Z,19.65
2023-05-05T11:47:50.104Z,20.00
2023-05-05T11:50:16.517Z,19.83
2023-05-05T11:52:42.870Z,19.87
2023-05-05T11:55:09.300Z,19.43
2023-05-05T11:57:35.646Z,19.64
2023-05-05T12:00:02.017Z,19.66
2023-05-05T12:02:31.036Z,19.53
2023-05-05T12:04:57.543Z,19.61
2023-05-05T12:07:23.914Z,19.35
2023-05-05T12:09:50.346Z,18.70
2023-05-05T12:12:16.725Z,19.26
2023-05-05T12:14:43.101Z,18.81
2023-05-05T12:17:09.528Z,18.62
2023-05-05T12:19:35.905Z,19.16
2023-05-05T12:22:02.311Z,18.83
2023-05-05T12:24:28.766Z,18.83
2023-05-05T12:26:55.134Z,18.89
2023-05-05T12:29:21.491Z,18.44
2023-05-05T12:31:47.976Z,18.67
2023-05-05T12:34:14.393Z,18.69
2023-05-05T12:36:40.718Z,18.87
2023-05-05T12:39:07.122Z,18.62
2023-05-05T12:41:33.522Z,18.63
2023-05-05T12:43:59.965Z,18.74
2023-05-05T12:46:26.532Z,18.91
2023-05-05T12:48:53.017Z,19.07
2023-05-05T12:51:19.402Z,18.75
2023-05-05T12:53:45.981Z,19.07
2023-05-05T12:56:12.353Z,19.26
2023-05-05T12:58:38.688Z,19.32
2023-05-05T13:01:05.130Z,19.16
2023-05-05T13:03:31.575Z,19.49
2023-05-05T13:05:58.085Z,19.22
2023-05-05T13:08:24.592Z,19.14
2023-05-05T13:10:50.941Z,19.96
2023-05-05T13:13:17.399Z,20.29
2023-05-05T13:15:43.949Z,20.05
2023-05-05T13:18:10.394Z,19.57
2023-05-05T13:20:36.835Z,19.20
2023-05-05T13:23:03.256Z,18.18
2023-05-05T13:25:29.607Z,17.65
2023-05-05T13:27:56.031Z,17.46
2023-05-05T13:30:22.443Z,16.55
2023-05-05T13:32:48.848Z,16.92
2023-05-05T13:35:16.564Z,17.46
2023-05-05T13:37:43.297Z,17.83
2023-05-05T13:40:09.664Z,17.82
2023-05-05T13:42:36.012Z,17.44
2023-05-05T13:45:02.389Z,17.08
2023-05-05T13:47:28.740Z,17.29
2023-05-05T13:49:55.148Z,17.10
2023-05-05T13:52:21.616Z,16.93
2023-05-05T13:54:47.949Z,16.93
2023-05-05T13:57:14.401Z,17.54
2023-05-05T13:59:40.867Z,17.17
2023-05-05T14:02:07.248Z,16.91
2023-05-05T14:04:33.800Z,16.75
2023-05-05T14:07:00.281Z,17.16
2023-05-05T14:09:26.663Z,17.09
2023-05-05T14:11:53.056Z,16.89
2023-05-05T14:14:19.423Z,16.97
2023-05-05T14:16:47.287Z,16.92
2023-05-05T14:19:14.900Z,16.68
2023-05-05T14:21:41.260Z,16.86
2023-05-05T14:24:07.582Z,17.06
2023-05-05T14:26:33.916Z,17.07
2023-05-05T14:29:00.288Z,16.82
2023-05-05T14:31:26.779Z,17.07
2023-05-05T14:33:53.269Z,16.98
2023-05-05T14:36:19.652Z,17.02
2023-05-05T14:38:46.040Z,17.04
2023-05-05T14:41:12.451Z,16.96
2023-05-05T14:43:38.830Z,16.69
2023-05-05T14:46:05.341Z,16.75
2023-05-05T14:48:31.788Z,16.76
2023-05-05T14:50:58.167Z,16.59
2023-05-05T14:53:24.476Z,17.03
2023-05-05T14:55:50.815Z,16.82
2023-05-05T14:58:17.193Z,16.78
2023-05-05T15:00:43.536Z,16.73
2023-05-05T15:03:10.123Z,16.17
2023-05-05T15:05:36.552Z,16.03
2023-05-05T15:08:02.886Z,16.00
2023-05-05T15:10:29.219Z,16.42
2023-05-05T15:12:55.596Z,16.41
2023-05-05T15:15:21.974Z,16.24
2023-05-05T15:17:48.342Z,15.97
2023-05-05T15:20:14.764Z,16.16
2023-05-05T15:22:41.096Z,15.73
2023-05-05T15:25:07.697Z,15.89
2023-05-05T15:27:34.303Z,15.89
2023-05-05T15:30:00.682Z,15.92
2023-05-05T15:32:27.048Z,15.86
2023-05-05T15:34:53.461Z,15.86
2023-05-05T15:37:19.772Z,15.86
2023-05-05T15:39:46.143Z,15.29
2023-05-05T15:42:12.559Z,15.39
2023-05-05T15:44:38.896Z,15.25
2023-05-05T15:47:05.343Z,15.52
2023-05-05T15:49:31.885Z,15.16
2023-05-05T15:51:58.272Z,15.14
2023-05-05T15:54:24.634Z,15.01
2023-05-05T15:56:51.176Z,15.33
2023-05-05T15:59:18.610Z,14.97
2023-05-05T16:01:45.503Z,15.12
2023-05-05T16:04:11.908Z,14.86
2023-05-05T16:06:38.251Z,15.13
2023-05-05T16:09:04.593Z,15.43
2023-05-05T16:11:30.985Z,15.44
2023-05-05T16:13:57.309Z,15.31
2023-05-05T16:16:23.651Z,15.48
2023-05-05T16:18:50.124Z,15.05
2023-05-05T16:21:16.461Z,15.54
2023-05-05T16:23:42.765Z,15.44
2023-05-05T16:26:09.143Z,15.52
2023-05-05T16:28:35.473Z,15.49
2023-05-05T16:31:01.822Z,15.23
2023-05-05T16:33:28.180Z,15.55
2023-05-05T16:35:54.509Z,15.16
2023-05-05T16:38:20.874Z,15.14
2023-05-05T16:40:47.226Z,15.00
2023-05-05T16:43:13.573Z,15.36
2023-05-05T16:45:39.882Z,15.38
2023-05-05T16:48:08.809Z,15.24
2023-05-05T16:50:35.480Z,15.19
2023-05-05T16:53:01.852Z,14.60
2023-05-05T16:55:28.218Z,15.19
2023-05-05T16:57:54.606Z,15.05
2023-05-05T17:00:20.947Z,14.96
2023-05-05T17:02:47.384Z,15.03
2023-05-05T17:05:13.807Z,15.14
2023-05-05T17:07:40.267Z,15.01
2023-05-05T17:10:06.706Z,15.52
2023-05-05T17:12:33.077Z,15.64
2023-05-05T17:14:59.464Z,15.19
2023-05-05T17:17:25.910Z,15.20
2023-05-05T17:19:52.394Z,15.00
2023-05-05T17:22:18.719Z,15.26
2023-05-05T17:24:45.080Z,15.58
2023-05-05T17:27:11.395Z,15.44
2023-05-05T17:29:37.710Z,15.65
2023-05-05T17:32:04.178Z,15.91
2023-05-05T17:34:30.593Z,16.02
2023-05-05T17:36:56.924Z,15.94
2023-05-05T17:39:23.309Z,16.01
2023-05-05T17:41:49.648Z,16.37
2023-05-05T17:44:15.965Z,16.10
2023-05-05T17:46:42.315Z,15.77
2023-05-05T17:49:08.651Z,16.24
2023-05-05T17:51:34.958Z,16.41
2023-05-05T17:54:01.576Z,16.33
2023-05-05T17:56:27.954Z,16.20
2023-05-05T17:58:54.300Z,15.97
2023-05-05T18:01:20.695Z,16.22
2023-05-05T18:03:47.082Z,16.66
2023-05-05T18:06:13.450Z,16.53
2023-05-05T18:08:39.804Z,16.30
2023-05-05T18:11:06.128Z,16.41
2023-05-05T18:13:32.457Z,16.70
2023-05-05T18:15:58.853Z,16.87
2023-05-05T18:18:25.254Z,16.56
2023-05-05T18:20:51.614Z,16.58
2023-05-05T18:23:18.194Z,16.58
2023-05-05T18:25:44.543Z,16.77
2023-05-05T18:28:10.870Z,17.06
2023-05-05T18:30:37.237Z,16.96
2023-05-05T18:33:03.599Z,16.95
2023-05-05T18:35:29.961Z,16.72
2023-05-05T18:37:56.467Z,16.95
2023-05-05T18:40:22.785Z,17.32
2023-05-05T18:42:49.113Z,17.10
2023-05-05T18:45:15.511Z,17.08
2023-05-05T18:47:41.893Z,17.47
2023-05-05T18:50:08.290Z,17.27
2023-05-05T18:52:34.660Z,17.22
2023-05-05T18:55:00.980Z,17.39
2023-05-05T18:57:27.320Z,17.53
2023-05-05T18:59:53.678Z,17.56
2023-05-05T19:02:20.076Z,17.56
2023-05-05T19:04:46.464Z,18.10
2023-05-05T19:07:16.341Z,18.23
2023-05-05T19:09:50.354Z,18.08
2023-05-05T19:12:16.769Z,18.09
2023-05-05T19:14:43.087Z,18.46
2023-05-05T19:17:09.411Z,18.56
2023-05-05T19:19:35.782Z,18.55
2023-05-05T19:22:03.008Z,18.38
2023-05-05T19:24:30.039Z,18.37
2023-05-05T19:26:56.410Z,18.79
2023-05-05T19:29:22.749Z,19.02
2023-05-05T19:31:49.128Z,19.04
2023-05-05T19:34:15.518Z,18.68
2023-05-05T19:36:41.877Z,19.19
2023-05-05T19:39:08.313Z,19.11
2023-05-05T19:41:34.772Z,19.01
2023-05-05T19:44:01.181Z,19.20
2023-05-05T19:46:27.600Z,19.44
2023-05-05T19:48:54.026Z,19.44
2023-05-05T19:51:20.341Z,19.51
2023-05-05T19:53:46.710Z,19.30
2023-05-05T19:56:13.073Z,19.72
2023-05-05T19:58:39.395Z,19.72
2023-05-05T20:01:05.766Z,19.83
2023-05-05T20:03:32.260Z,19.80
2023-05-05T20:05:58.609Z,19.92
2023-05-05T20:08:24.955Z,19.69
2023-05-05T20:10:51.318Z,19.64
2023-05-05T20:13:17.702Z,20.01
2023-05-05T20:15:44.098Z,20.05
2023-05-05T20:18:10.521Z,20.06
2023-05-05T20:20:36.846Z,20.00
2023-05-05T20:23:03.201Z,20.25
2023-05-05T20:25:29.574Z,20.47
2023-05-05T20:27:55.909Z,20.12
2023-05-05T20:30:22.250Z,20.20
2023-05-05T20:32:48.683Z,20.25
2023-05-05T20:35:15.033Z,20.27
2023-05-05T20:37:41.365Z,20.57
2023-05-05T20:40:07.852Z,20.54
2023-05-05T20:42:34.435Z,20.81
2023-05-05T20:45:00.768Z,20.75
2023-05-05T20:47:27.152Z,20.72
2023-05-05T20:49:53.498Z,21.01
2023-05-05T20:52:19.807Z,21.07
2023-05-05T20:54:46.164Z,20.80
2023-05-05T20:57:12.492Z,21.00
2023-05-05T20:59:38.915Z,21.20
2023-05-05T21:02:05.314Z,20.95
2023-05-05T21:04:31.870Z,21.14
2023-05-05T21:06:58.280Z,21.15
2023-05-05T21:09:24.862Z,21.25
2023-05-05T21:11:51.225Z,21.26
2023-05-05T21:14:17.560Z,21.53
2023-05-05T21:16:43.959Z,21.45
2023-05-05T21:19:10.321Z,21.52
2023-05-05T21:21:36.633Z,21.56
2023-05-05T21:24:04.286Z,21.67
2023-05-05T21:26:31.766Z,21.74
2023-05-05T21:28:58.104Z,21.77
2023-05-05T21:31:24.492Z,22.03
2023-05-05T21:33:50.802Z,22.24
2023-05-05T21:36:17.118Z,21.98
2023-05-05T21:38:43.516Z,22.00
2023-05-05T21:41:09.868Z,22.10
2023-05-05T21:43:36.238Z,22.45
2023-05-05T21:46:02.731Z,22.53
2023-05-05T21:48:29.133Z,22.50
2023-05-05T21:50:55.445Z,22.45
2023-05-05T21:53:21.828Z,22.75
2023-05-05T21:55:48.213Z,22.78
2023-05-05T21:58:14.513Z,22.56
2023-05-05T22:00:40.911Z,22.79
2023-05-05T22:03:07.377Z,22.66
2023-05-05T22:05:33.777Z,22.81
2023-05-05T22:08:00.161Z,23.09
2023-05-05T22:10:26.478Z,23.00
2023-05-05T22:12:53.009Z,23.11
2023-05-05T22:15:19.388Z,23.11
2023-05-05T22:17:45.848Z,23.21
2023-05-05T22:20:12.208Z,23.40
2023-05-05T22:22:38.602Z,23.36
2023-05-05T22:25:04.955Z,23.59
2023-05-05T22:27:31.262Z,23.71
2023-05-05T22:29:57.655Z,23.72
2023-05-05T22:32:23.978Z,23.74
2023-05-05T22:34:50.362Z,23.99
2023-05-05T22:37:16.724Z,23.96
2023-05-05T22:39:43.110Z,23.91
2023-05-05T22:42:09.495Z,23.89
2023-05-05T22:44:35.848Z,24.04
2023-05-05T22:47:02.210Z,24.24
2023-05-05T22:49:28.624Z,24.14
2023-05-05T22:51:55.116Z,24.51
2023-05-05T22:54:21.468Z,24.53
2023-05-05T22:56:48.380Z,24.47
2023-05-05T22:59:14.736Z,24.29
2023-05-05T23:01:41.185Z,24.54
2023-05-05T23:04:07.586Z,24.63
2023-05-05T23:06:33.965Z,24.66
2023-05-05T23:09:00.294Z,24.77
2023-05-05T23:11:26.607Z,24.72
2023-05-05T23:13:53.004Z,25.01
2023-05-05T23:16:19.368Z,25.25
2023-05-05T23:18:45.736Z,25.17
2023-05-05T23:21:12.159Z,25.00
2023-05-05T23:23:38.501Z,25.47
2023-05-05T23:26:04.834Z,25.34
2023-05-05T23:28:31.193Z,25.31
2023-05-05T23:30:57.580Z,25.45
2023-05-05T23:33:23.922Z,25.63
2023-05-05T23:35:50.319Z,25.40
2023-05-05T23:38:16.644Z,25.33
2023-05-05T23:40:42.989Z,25.73
2023-05-05T23:43:09.363Z,25.54
2023-05-05T23:45:35.699Z,25.53
2023-05-05T23:48:02.037Z,25.78
2023-05-05T23:50:28.414Z,25.79
2023-05-05T23:52:54.716Z,25.64
2023-05-05T23:55:21.080Z,25.81
2023-05-05T23:57:47.433Z,25.66
